Time;durP1;ratioP1;P1;durP2;ratioP2;P2;SDS_P1;SDS_P2;PMS_P1;PMS_P2;Temp;Humidity;BMP_temperature;BMP_pressure;BME280_temperature;BME280_humidity;BME280_pressure;Samples;Min_cycle;Max_cycle;Signal;HPM_P1;HPM_P2
2023/08/19 00:00:19;;;;;;;1.30;1.20;;;22.90;99.90;;;;;;5113628;28;20197;-85
2023/08/19 00:02:45;;;;;;;1.33;1.20;;;22.90;99.90;;;;;;5113331;28;20287;-84
2023/08/19 00:05:12;;;;;;;0.90;0.90;;;22.90;99.90;;;;;;5113817;28;20220;-85
2023/08/19 00:07:39;;;;;;;1.40;1.00;;;22.90;99.90;;;;;;5117657;27;20549;-85
2023/08/19 00:10:08;;;;;;;1.40;1.30;;;22.90;99.90;;;;;;5117475;28;20446;-84
2023/08/19 00:12:35;;;;;;;1.50;1.10;;;22.90;99.90;;;;;;5117494;28;20204;-84
2023/08/19 00:15:02;;;;;;;1.27;1.17;;;22.80;99.90;;;;;;5117299;28;20226;-84
2023/08/19 00:17:30;;;;;;;1.07;0.97;;;22.80;99.90;;;;;;5117412;28;20207;-85
2023/08/19 00:19:56;;;;;;;1.27;1.17;;;22.80;99.90;;;;;;5117121;28;20465;-85
2023/08/19 00:22:23;;;;;;;1.40;0.93;;;22.80;99.90;;;;;;5117218;28;20200;-84
2023/08/19 00:24:50;;;;;;;1.30;1.30;;;22.70;99.90;;;;;;5117274;28;20259;-85
2023/08/19 00:27:18;;;;;;;1.87;1.50;;;22.70;99.90;;;;;;5117140;28;20232;-84
2023/08/19 00:29:45;;;;;;;1.23;1.10;;;22.70;99.90;;;;;;5116832;28;20565;-84
2023/08/19 00:32:13;;;;;;;6.90;0.90;;;22.80;99.90;;;;;;5117122;28;20204;-85
2023/08/19 00:34:39;;;;;;;1.80;0.90;;;22.70;99.90;;;;;;5117026;28;20636;-85
2023/08/19 00:37:07;;;;;;;1.00;0.90;;;22.80;99.90;;;;;;5116680;27;20235;-84
2023/08/19 00:39:34;;;;;;;1.13;1.03;;;22.70;99.90;;;;;;5116991;28;20200;-84
2023/08/19 00:42:01;;;;;;;1.10;1.00;;;22.70;99.90;;;;;;5116869;28;20210;-84
2023/08/19 00:44:30;;;;;;;0.80;0.80;;;22.70;99.90;;;;;;5116602;28;20217;-84
2023/08/19 00:46:58;;;;;;;1.83;1.40;;;22.70;99.90;;;;;;5116814;28;20255;-84
2023/08/19 00:49:25;;;;;;;2.50;1.00;;;22.50;99.90;;;;;;5116386;28;20236;-84
2023/08/19 00:51:52;;;;;;;0.90;0.90;;;22.50;99.90;;;;;;5116584;28;20564;-84
2023/08/19 00:54:18;;;;;;;2.97;1.20;;;22.40;99.90;;;;;;5116657;28;20200;-84
2023/08/19 00:56:45;;;;;;;8.70;1.50;;;22.40;99.90;;;;;;5116611;28;20221;-84
2023/08/19 00:59:12;;;;;;;1.93;1.00;;;22.30;99.90;;;;;;5116526;27;20450;-84
2023/08/19 01:01:41;;;;;;;1.00;1.00;;;22.20;99.90;;;;;;5116566;28;20449;-85
2023/08/19 01:04:08;;;;;;;1.10;1.10;;;22.10;99.90;;;;;;5116076;28;20605;-85
2023/08/19 01:06:41;;;;;;;1.87;1.07;;;22.10;99.90;;;;;;5116372;27;20445;-84
2023/08/19 01:09:19;;;;;;;1.40;1.30;;;21.90;99.90;;;;;;5116408;28;20415;-84
2023/08/19 01:12:03;;;;;;;0.83;0.83;;;21.90;99.90;;;;;;5116414;28;20419;-84
2023/08/19 01:14:38;;;;;;;1.97;1.37;;;21.90;99.90;;;;;;5116180;28;20462;-84
2023/08/19 01:17:10;;;;;;;1.47;1.20;;;21.80;99.90;;;;;;5115255;28;20466;-84
2023/08/19 01:19:38;;;;;;;1.57;1.47;;;21.80;99.90;;;;;;5116223;28;20787;-84
2023/08/19 01:22:07;;;;;;;2.67;1.13;;;21.70;99.90;;;;;;5116080;27;20442;-84
2023/08/19 01:24:39;;;;;;;5.33;1.33;;;21.70;99.90;;;;;;5116002;28;20505;-85
2023/08/19 01:27:07;;;;;;;6.53;1.17;;;21.70;99.90;;;;;;5115766;28;20827;-84
2023/08/19 01:29:34;;;;;;;0.83;0.83;;;21.60;99.90;;;;;;5115932;28;20442;-84
2023/08/19 01:32:01;;;;;;;2.63;1.30;;;21.60;99.90;;;;;;5115936;27;20446;-84
2023/08/19 01:34:27;;;;;;;0.80;0.80;;;21.60;99.90;;;;;;5115708;28;20466;-84
2023/08/19 01:37:02;;;;;;;1.07;0.97;;;21.60;99.90;;;;;;5115423;27;21035;-84
2023/08/19 01:39:30;;;;;;;0.83;0.83;;;21.60;99.90;;;;;;5115879;28;20517;-84
2023/08/19 01:41:58;;;;;;;1.30;1.00;;;21.50;99.90;;;;;;5115790;28;20454;-84
2023/08/19 01:44:25;;;;;;;3.93;1.60;;;21.40;99.90;;;;;;5115588;28;20465;-84
2023/08/19 01:46:52;;;;;;;1.00;1.00;;;21.40;99.90;;;;;;5115619;28;20441;-84
2023/08/19 01:49:19;;;;;;;1.30;0.90;;;21.30;99.90;;;;;;5115277;28;20958;-84
2023/08/19 01:51:46;;;;;;;1.20;0.87;;;21.20;99.90;;;;;;5115469;27;20454;-85
2023/08/19 01:54:12;;;;;;;1.37;1.10;;;21.20;99.90;;;;;;5115474;28;20448;-84
2023/08/19 01:56:39;;;;;;;1.83;0.93;;;21.30;99.90;;;;;;5115391;28;20486;-84
2023/08/19 01:59:07;;;;;;;1.07;0.93;;;21.20;99.90;;;;;;5115352;28;20642;-84
2023/08/19 02:01:34;;;;;;;2.10;1.30;;;21.30;99.90;;;;;;5115367;28;20439;-84
2023/08/19 02:04:00;;;;;;;2.40;1.07;;;21.30;99.90;;;;;;5114850;28;20470;-84
2023/08/19 02:06:29;;;;;;;1.47;1.17;;;21.40;99.90;;;;;;5115216;28;20430;-84
2023/08/19 02:08:55;;;;;;;2.90;1.20;;;21.40;99.90;;;;;;5114836;28;21038;-84
2023/08/19 02:11:22;;;;;;;1.17;1.00;;;21.40;99.90;;;;;;5115155;28;20435;-84
2023/08/19 02:13:49;;;;;;;2.03;1.40;;;21.40;99.90;;;;;;5114810;28;20439;-84
2023/08/19 02:16:17;;;;;;;1.23;1.00;;;21.40;99.90;;;;;;5114884;28;20501;-84
2023/08/19 02:18:43;;;;;;;0.80;0.80;;;21.40;99.90;;;;;;5114964;28;20441;-84
2023/08/19 02:21:10;;;;;;;2.50;1.20;;;21.30;99.90;;;;;;5114615;28;20951;-84
2023/08/19 02:23:37;;;;;;;4.13;1.00;;;21.20;99.90;;;;;;5114927;28;20425;-84
2023/08/19 02:26:03;;;;;;;1.00;0.90;;;21.20;99.90;;;;;;5114807;28;20455;-84
2023/08/19 02:28:30;;;;;;;2.47;0.87;;;21.20;99.90;;;;;;5114711;28;20442;-84
2023/08/19 02:31:01;;;;;;;1.17;1.07;;;21.10;99.90;;;;;;5114816;28;20548;-84
2023/08/19 02:33:30;;;;;;;2.97;1.03;;;21.10;99.90;;;;;;5114771;28;20431;-84
2023/08/19 02:35:56;;;;;;;1.27;1.00;;;21.00;99.90;;;;;;5114240;28;20483;-84
2023/08/19 02:38:23;;;;;;;6.43;1.77;;;21.00;99.90;;;;;;5114679;28;20434;-84
2023/08/19 02:40:50;;;;;;;1.00;0.90;;;21.00;99.90;;;;;;5114570;28;20445;-84
2023/08/19 02:43:17;;;;;;;1.57;1.07;;;21.00;99.90;;;;;;5114526;28;20439;-85
2023/08/19 02:45:44;;;;;;;4.17;1.13;;;20.90;99.90;;;;;;5114095;28;21010;-84
2023/08/19 02:48:10;;;;;;;1.53;0.77;;;20.90;99.90;;;;;;5114101;27;20530;-85
2023/08/19 02:50:38;;;;;;;6.83;1.57;;;20.80;99.90;;;;;;5114361;28;20435;-84
2023/08/19 02:53:05;;;;;;;1.10;1.00;;;20.80;99.90;;;;;;5114397;28;20446;-84
2023/08/19 02:55:32;;;;;;;3.50;1.37;;;20.80;99.90;;;;;;5114239;28;20466;-83
2023/08/19 02:57:59;;;;;;;1.20;1.10;;;20.80;99.90;;;;;;5113902;27;21055;-83
2023/08/19 03:00:26;;;;;;;1.50;1.10;;;20.80;99.90;;;;;;5114175;28;20469;-83
2023/08/19 03:02:53;;;;;;;2.37;1.70;;;20.80;99.90;;;;;;5113865;28;20504;-83
2023/08/19 03:05:20;;;;;;;1.37;1.27;;;20.70;99.90;;;;;;5113777;28;20844;-83
2023/08/19 03:07:48;;;;;;;7.27;1.70;;;20.70;99.90;;;;;;5114099;28;20496;-83
2023/08/19 03:10:15;;;;;;;1.30;1.20;;;20.70;99.90;;;;;;5114099;28;20434;-83
2023/08/19 03:12:42;;;;;;;1.40;1.30;;;20.70;99.90;;;;;;5114025;28;20438;-83
2023/08/19 03:15:09;;;;;;;1.47;1.17;;;20.70;99.90;;;;;;5113637;28;20473;-83
2023/08/19 03:17:35;;;;;;;2.23;1.53;;;20.70;99.90;;;;;;5113619;28;20480;-83
2023/08/19 03:20:02;;;;;;;1.57;1.47;;;20.60;99.90;;;;;;5113980;28;20442;-84
2023/08/19 03:22:29;;;;;;;2.00;1.43;;;20.60;99.90;;;;;;5113580;28;20810;-83
2023/08/19 03:24:57;;;;;;;2.13;1.83;;;20.60;99.90;;;;;;5113785;28;20459;-83
2023/08/19 03:27:23;;;;;;;1.27;1.17;;;20.60;99.90;;;;;;5113908;28;20435;-83
2023/08/19 03:29:50;;;;;;;2.13;1.20;;;20.60;99.90;;;;;;5113789;28;20447;-83
2023/08/19 03:32:17;;;;;;;1.80;1.57;;;20.50;99.90;;;;;;5113540;28;20439;-83
2023/08/19 03:34:43;;;;;;;1.50;1.40;;;20.50;99.90;;;;;;5113682;28;20489;-83
2023/08/19 03:37:10;;;;;;;1.20;1.10;;;20.50;99.90;;;;;;5113651;28;20485;-84
2023/08/19 03:39:37;;;;;;;1.93;1.20;;;20.50;99.90;;;;;;5113745;28;20442;-84
2023/08/19 03:42:05;;;;;;;2.50;1.47;;;20.50;99.90;;;;;;5117451;28;20438;-83
2023/08/19 03:44:32;;;;;;;3.73;1.87;;;20.50;99.90;;;;;;5117611;28;20532;-83
2023/08/19 03:46:59;;;;;;;1.50;1.40;;;20.40;99.90;;;;;;5117651;28;20919;-83
2023/08/19 03:49:25;;;;;;;3.90;1.43;;;20.40;99.90;;;;;;5118711;28;20450;-83
2023/08/19 03:51:52;;;;;;;1.67;1.57;;;20.40;99.90;;;;;;5117561;28;21059;-83
2023/08/19 03:54:19;;;;;;;2.90;1.47;;;20.40;99.90;;;;;;5117692;28;20469;-83
2023/08/19 03:56:45;;;;;;;2.07;1.20;;;20.40;99.90;;;;;;5117654;28;20485;-83
2023/08/19 03:59:13;;;;;;;4.50;1.47;;;20.40;99.90;;;;;;5117387;28;20823;-83
2023/08/19 04:01:40;;;;;;;3.83;2.03;;;20.40;99.90;;;;;;5126407;28;20450;-83
2023/08/19 04:04:09;;;;;;;3.70;1.37;;;20.40;99.90;;;;;;5117069;28;21005;-83
2023/08/19 04:06:35;;;;;;;1.50;1.40;;;20.30;99.90;;;;;;5117541;28;20525;-83
2023/08/19 04:09:02;;;;;;;3.63;1.80;;;20.30;99.90;;;;;;5117527;28;20442;-83
2023/08/19 04:11:29;;;;;;;1.70;1.47;;;20.30;99.90;;;;;;5117451;28;20443;-83
2023/08/19 04:13:56;;;;;;;2.43;1.57;;;20.30;99.90;;;;;;5117154;28;20430;-83
2023/08/19 04:16:24;;;;;;;2.17;1.70;;;20.30;99.90;;;;;;5116886;28;20995;-83
2023/08/19 04:18:50;;;;;;;5.23;1.70;;;20.30;99.90;;;;;;5117282;28;20891;-83
2023/08/19 04:21:18;;;;;;;3.93;1.63;;;20.30;99.90;;;;;;5117300;27;20445;-83
2023/08/19 04:23:44;;;;;;;2.90;2.70;;;20.30;99.90;;;;;;5117302;28;20485;-83
2023/08/19 04:26:11;;;;;;;1.67;1.57;;;20.30;99.90;;;;;;5116769;28;20458;-83
2023/08/19 04:28:38;;;;;;;3.90;1.53;;;20.30;99.90;;;;;;5117174;28;20442;-84
2023/08/19 04:31:06;;;;;;;1.70;1.60;;;20.30;99.90;;;;;;5117060;28;20442;-83
2023/08/19 04:33:35;;;;;;;3.17;2.10;;;20.30;99.90;;;;;;5117069;27;20517;-83
2023/08/19 04:36:02;;;;;;;1.47;1.37;;;20.30;99.90;;;;;;5116896;28;20473;-83
2023/08/19 04:38:29;;;;;;;2.70;1.50;;;20.30;99.90;;;;;;5116894;28;20477;-83
2023/08/19 04:40:56;;;;;;;1.43;1.33;;;20.30;99.90;;;;;;5116930;28;20438;-83
2023/08/19 04:43:23;;;;;;;5.73;1.77;;;20.30;99.90;;;;;;5116828;27;20438;-83
2023/08/19 04:45:50;;;;;;;1.47;1.27;;;20.30;99.90;;;;;;5116721;28;20489;-83
2023/08/19 04:48:16;;;;;;;4.07;2.57;;;20.30;99.90;;;;;;5116754;28;20439;-83
2023/08/19 04:50:44;;;;;;;2.47;2.27;;;20.30;99.90;;;;;;5116739;27;20442;-84
2023/08/19 04:53:11;;;;;;;6.43;2.20;;;20.30;99.90;;;;;;5115302;28;20446;-83
2023/08/19 04:55:38;;;;;;;3.87;2.20;;;20.40;99.90;;;;;;5116259;28;20997;-83
2023/08/19 04:58:05;;;;;;;1.17;1.07;;;20.40;99.90;;;;;;5116491;28;20481;-83
2023/08/19 05:00:32;;;;;;;1.97;1.87;;;20.40;99.90;;;;;;5116454;28;20445;-83
2023/08/19 05:02:58;;;;;;;4.23;1.50;;;20.50;99.90;;;;;;5115970;28;20995;-83
2023/08/19 05:05:25;;;;;;;3.53;2.00;;;20.50;99.90;;;;;;5116314;27;20462;-84
2023/08/19 05:07:53;;;;;;;2.50;1.30;;;20.50;99.90;;;;;;5116391;28;20533;-83
2023/08/19 05:10:20;;;;;;;1.80;1.43;;;20.60;99.90;;;;;;5116332;28;20435;-83
2023/08/19 05:12:47;;;;;;;3.63;1.93;;;20.60;99.90;;;;;;5115989;27;21109;-84
2023/08/19 05:15:14;;;;;;;3.37;2.20;;;20.60;99.90;;;;;;5116149;28;20473;-83
2023/08/19 05:17:40;;;;;;;2.87;1.93;;;20.70;99.90;;;;;;5115839;28;20823;-83
2023/08/19 05:20:08;;;;;;;4.57;2.20;;;20.70;99.90;;;;;;5116148;28;20439;-83
2023/08/19 05:22:35;;;;;;;3.50;1.70;;;20.80;99.90;;;;;;5116077;28;20438;-83
2023/08/19 05:25:05;;;;;;;2.07;1.93;;;20.80;99.90;;;;;;5115964;28;20465;-84
2023/08/19 05:27:32;;;;;;;2.43;2.23;;;20.80;99.90;;;;;;5115667;28;20538;-83
2023/08/19 05:29:58;;;;;;;3.37;1.80;;;20.90;99.90;;;;;;5115978;28;20447;-83
2023/08/19 05:32:25;;;;;;;5.30;2.20;;;20.90;99.90;;;;;;5115902;28;20445;-86
2023/08/19 05:34:52;;;;;;;7.87;2.00;;;21.00;99.90;;;;;;5115388;28;20852;-84
2023/08/19 05:37:18;;;;;;;3.10;1.70;;;21.00;99.90;;;;;;5115405;28;21012;-84
2023/08/19 05:39:45;;;;;;;4.70;2.43;;;21.20;99.90;;;;;;5115814;28;20442;-83
2023/08/19 05:42:13;;;;;;;4.00;1.57;;;21.10;99.90;;;;;;5115513;28;20431;-84
2023/08/19 05:44:40;;;;;;;6.70;2.10;;;21.10;99.90;;;;;;5115325;28;20993;-84
2023/08/19 05:47:08;;;;;;;4.90;3.00;;;21.20;99.90;;;;;;5115664;28;20442;-84
2023/08/19 05:49:35;;;;;;;5.73;2.60;;;21.20;99.90;;;;;;5115596;28;20458;-84
2023/08/19 05:52:02;;;;;;;3.37;1.73;;;21.30;99.90;;;;;;5115499;28;20439;-84
2023/08/19 05:54:29;;;;;;;3.73;2.20;;;21.30;99.90;;;;;;5115403;28;20464;-83
2023/08/19 05:56:55;;;;;;;9.20;2.07;;;21.40;99.90;;;;;;5115035;28;20994;-84
2023/08/19 05:59:23;;;;;;;2.93;2.30;;;21.40;99.90;;;;;;5115419;28;20438;-84
2023/08/19 06:01:50;;;;;;;2.80;1.63;;;21.50;99.90;;;;;;5115387;28;20439;-85
2023/08/19 06:04:17;;;;;;;2.50;2.00;;;21.60;99.90;;;;;;5114311;28;20851;-84
2023/08/19 06:06:43;;;;;;;2.23;1.90;;;21.80;99.90;;;;;;5115255;28;20537;-83
2023/08/19 06:09:10;;;;;;;2.90;1.80;;;21.90;99.90;;;;;;5115185;28;20443;-84
2023/08/19 06:11:47;;;;;;;2.87;2.30;;;22.00;99.90;;;;;;5115170;28;20442;-84
2023/08/19 06:14:14;;;;;;;2.30;2.10;;;22.20;99.90;;;;;;5114759;28;20778;-84
2023/08/19 06:16:43;;;;;;;2.40;2.03;;;22.30;99.90;;;;;;5114951;28;20446;-84
2023/08/19 06:19:10;;;;;;;2.10;1.53;;;22.40;99.90;;;;;;5114996;28;20443;-83
2023/08/19 06:21:36;;;;;;;9.00;2.50;;;22.50;99.90;;;;;;5114821;28;20197;-84
2023/08/19 06:24:04;;;;;;;2.00;1.47;;;22.60;99.90;;;;;;5114514;28;20962;-84
2023/08/19 06:26:31;;;;;;;1.97;1.40;;;22.80;99.90;;;;;;5114848;28;20808;-84
2023/08/19 06:28:57;;;;;;;2.53;2.33;;;22.90;99.90;;;;;;5114680;28;20450;-84
2023/08/19 06:31:25;;;;;;;3.80;1.80;;;22.90;99.90;;;;;;5114748;28;20205;-84
2023/08/19 06:33:54;;;;;;;2.20;1.80;;;23.10;99.90;;;;;;5114374;28;20571;-84
2023/08/19 06:36:24;;;;;;;1.97;1.87;;;23.20;99.90;;;;;;5114585;28;20224;-84
2023/08/19 06:39:03;;;;;;;2.70;1.90;;;23.40;99.90;;;;;;5114626;28;20221;-84
2023/08/19 06:41:32;;;;;;;2.13;1.87;;;23.50;99.90;;;;;;5114640;28;20556;-85
2023/08/19 06:44:01;;;;;;;2.57;2.13;;;23.60;99.90;;;;;;5114148;28;20201;-85
2023/08/19 06:46:29;;;;;;;2.75;1.60;;;23.70;99.90;;;;;;5114603;28;20209;-84
2023/08/19 06:48:58;;;;;;;2.75;1.98;;;23.90;99.90;;;;;;5114166;28;20692;-84
2023/08/19 06:51:26;;;;;;;2.28;2.08;;;24.00;99.90;;;;;;5114469;28;20208;-84
2023/08/19 06:53:53;;;;;;;1.58;1.48;;;24.00;99.90;;;;;;5114612;28;20196;-84
2023/08/19 06:56:26;;;;;;;2.63;2.00;;;24.10;99.90;;;;;;5114274;28;20633;-84
2023/08/19 06:58:55;;;;;;;3.80;1.88;;;24.30;99.90;;;;;;5114281;28;20208;-84
2023/08/19 07:01:30;;;;;;;2.15;1.63;;;24.40;99.90;;;;;;5114244;28;20200;-83
2023/08/19 07:03:58;;;;;;;2.65;2.45;;;24.60;99.90;;;;;;5113944;28;20239;-83
2023/08/19 07:06:29;;;;;;;1.80;1.70;;;24.60;99.90;;;;;;5113901;28;20677;-84
2023/08/19 07:08:58;;;;;;;2.20;1.75;;;24.80;99.90;;;;;;5114166;28;20177;-85
2023/08/19 07:11:25;;;;;;;1.98;1.80;;;24.90;99.90;;;;;;5114058;28;20279;-84
2023/08/19 07:13:52;;;;;;;1.40;1.30;;;25.00;99.90;;;;;;5114092;28;20200;-84
2023/08/19 07:16:22;;;;;;;2.22;2.13;;;25.10;99.90;;;;;;5113197;28;20228;-85
2023/08/19 07:18:52;;;;;;;2.22;2.08;;;25.20;99.90;;;;;;5113977;28;20230;-84
2023/08/19 07:21:23;;;;;;;2.47;2.03;;;25.30;99.90;;;;;;5114208;28;20273;-85
2023/08/19 07:23:54;;;;;;;2.60;1.98;;;25.40;99.90;;;;;;5114000;28;20193;-85
2023/08/19 07:26:26;;;;;;;1.83;1.63;;;25.50;99.90;;;;;;5113850;28;20223;-84
2023/08/19 07:28:53;;;;;;;2.28;1.73;;;25.60;99.90;;;;;;5113936;28;20188;-84
2023/08/19 07:31:21;;;;;;;1.92;1.58;;;25.70;99.90;;;;;;5113661;28;20211;-85
2023/08/19 07:33:48;;;;;;;2.05;1.70;;;25.80;99.90;;;;;;5113796;28;20257;-85
2023/08/19 07:36:15;;;;;;;2.35;2.08;;;26.10;99.90;;;;;;5113651;28;20274;-85
2023/08/19 07:38:45;;;;;;;2.50;2.15;;;26.10;99.90;;;;;;5113714;28;20220;-85
2023/08/19 07:41:12;;;;;;;2.15;1.63;;;26.20;99.90;;;;;;5113488;28;20642;-85
2023/08/19 07:43:39;;;;;;;1.63;1.52;;;26.30;99.90;;;;;;5113376;28;20677;-86
2023/08/19 07:46:05;;;;;;;1.88;1.58;;;26.50;99.90;;;;;;5113712;28;20252;-85
2023/08/19 07:48:32;;;;;;;2.17;1.75;;;26.60;99.90;;;;;;5113694;28;20204;-85
2023/08/19 07:50:59;;;;;;;2.45;1.63;;;26.70;99.90;;;;;;5113355;28;20203;-84
2023/08/19 07:53:26;;;;;;;4.05;1.92;;;26.70;99.90;;;;;;5113667;28;20212;-85
2023/08/19 07:55:54;;;;;;;3.47;3.28;;;26.80;99.90;;;;;;5113513;28;20231;-84
2023/08/19 07:58:20;;;;;;;3.28;2.88;;;27.00;99.90;;;;;;5113220;28;20232;-84
2023/08/19 08:00:47;;;;;;;5.20;4.70;;;27.10;99.90;;;;;;5113545;28;20204;-84
2023/08/19 08:03:14;;;;;;;3.63;3.28;;;27.20;99.90;;;;;;5113028;28;20736;-85
2023/08/19 08:05:41;;;;;;;1.80;1.40;;;27.30;99.90;;;;;;5113384;28;20231;-84
2023/08/19 08:08:07;;;;;;;2.40;2.05;;;27.40;99.90;;;;;;5113542;28;20204;-84
2023/08/19 08:10:34;;;;;;;4.07;3.72;;;27.50;99.90;;;;;;5113165;28;20696;-86
2023/08/19 08:13:02;;;;;;;3.10;2.45;;;27.60;99.90;;;;;;5113490;28;20600;-86
2023/08/19 08:15:30;;;;;;;3.25;2.60;;;27.80;99.90;;;;;;5113346;28;20252;-86
2023/08/19 08:17:57;;;;;;;3.90;3.58;;;27.90;99.90;;;;;;5112986;28;20689;-86
2023/08/19 08:20:24;;;;;;;5.43;4.45;;;28.00;99.90;;;;;;5113459;28;20205;-86
2023/08/19 08:22:51;;;;;;;3.47;3.03;;;28.00;99.90;;;;;;5113135;28;20208;-86
2023/08/19 08:25:17;;;;;;;2.83;2.58;;;28.20;99.90;;;;;;5113378;28;20570;-85
2023/08/19 08:27:45;;;;;;;4.18;3.83;;;28.40;99.90;;;;;;5115884;28;20673;-85
2023/08/19 08:30:13;;;;;;;6.15;5.68;;;28.50;99.90;;;;;;5116833;28;20666;-84
2023/08/19 08:32:40;;;;;;;5.35;4.95;;;28.50;99.90;;;;;;5118739;28;20204;-85
2023/08/19 08:35:07;;;;;;;9.13;8.63;;;28.70;99.90;;;;;;5122118;28;20266;-86
2023/08/19 08:37:34;;;;;;;5.85;5.13;;;28.70;99.90;;;;;;5116651;28;20696;-86
2023/08/19 08:40:01;;;;;;;7.28;6.45;;;28.90;99.90;;;;;;5116782;28;20561;-86
2023/08/19 08:42:28;;;;;;;24.42;23.17;;;28.90;99.90;;;;;;5116964;28;20200;-86
2023/08/19 08:44:55;;;;;;;45.50;43.38;;;28.90;99.90;;;;;;5116872;28;20224;-86
2023/08/19 08:47:24;;;;;;;54.28;51.60;;;29.00;99.90;;;;;;5116593;28;20204;-85
2023/08/19 08:49:53;;;;;;;19.00;18.02;;;29.00;99.90;;;;;;5116759;27;20193;-79
2023/08/19 08:52:21;;;;;;;32.50;30.88;;;29.30;99.90;;;;;;5116682;28;20206;-79
2023/08/19 08:54:52;;;;;;;54.08;51.47;;;29.40;99.90;;;;;;5116590;28;20577;-79
2023/08/19 08:57:18;;;;;;;33.45;31.70;;;29.60;99.90;;;;;;5116633;28;20198;-79
2023/08/19 08:59:45;;;;;;;49.42;46.85;;;29.80;99.90;;;;;;5116196;28;20217;-79
2023/08/19 09:02:13;;;;;;;9.15;8.77;;;30.10;99.90;;;;;;5116422;28;20237;-79
2023/08/19 09:04:44;;;;;;;20.02;19.13;;;30.20;99.90;;;;;;5115894;27;20712;-79
2023/08/19 09:07:13;;;;;;;32.30;30.40;;;30.50;99.90;;;;;;5116180;28;20210;-79
2023/08/19 09:09:41;;;;;;;66.82;63.85;;;30.60;99.90;;;;;;5116356;28;20205;-80
2023/08/19 09:12:12;;;;;;;79.22;75.68;;;30.80;99.90;;;;;;5116330;28;20203;-79
2023/08/19 09:14:42;;;;;;;109.00;103.63;;;31.00;99.90;;;;;;5116192;27;20225;-79
2023/08/19 09:17:12;;;;;;;137.63;130.85;;;31.10;99.90;;;;;;5116192;28;20254;-79
2023/08/19 09:19:38;;;;;;;100.30;94.97;;;31.10;99.90;;;;;;5116027;28;20233;-79
2023/08/19 09:22:20;;;;;;;109.63;104.00;;;31.10;99.90;;;;;;5116128;28;20201;-79
2023/08/19 09:24:47;;;;;;;76.68;72.75;;;31.10;99.90;;;;;;5116044;28;20231;-79
2023/08/19 09:27:18;;;;;;;42.28;39.65;;;31.10;99.90;;;;;;5116017;28;20236;-79
2023/08/19 09:29:50;;;;;;;77.70;73.80;;;31.20;99.90;;;;;;5116181;28;20185;-79
2023/08/19 09:32:17;;;;;;;70.22;66.65;;;31.40;99.90;;;;;;5116024;27;20192;-79
2023/08/19 09:34:43;;;;;;;80.40;76.18;;;31.40;99.90;;;;;;5115830;28;20228;-79
2023/08/19 09:37:11;;;;;;;95.70;90.93;;;31.30;99.90;;;;;;5115824;28;20228;-79
2023/08/19 09:39:39;;;;;;;101.57;96.50;;;31.20;99.90;;;;;;5114958;28;20228;-79
2023/08/19 09:42:06;;;;;;;115.55;109.57;;;31.10;99.90;;;;;;5115415;28;20204;-79
2023/08/19 09:44:32;;;;;;;125.22;119.15;;;31.20;99.90;;;;;;5115521;28;20213;-79
2023/08/19 09:47:03;;;;;;;93.18;88.28;;;31.30;99.90;;;;;;5115330;28;20673;-79
2023/08/19 09:49:29;;;;;;;131.00;124.65;;;31.30;99.90;;;;;;5115605;28;20189;-79
2023/08/19 09:51:57;;;;;;;99.13;94.10;;;31.40;99.90;;;;;;5115486;28;20208;-79
2023/08/19 09:54:24;;;;;;;107.65;102.25;;;31.40;99.90;;;;;;5115454;27;20222;-79
2023/08/19 09:56:56;;;;;;;90.50;86.00;;;31.60;99.90;;;;;;5115063;28;20203;-79
2023/08/19 09:59:24;;;;;;;126.50;120.10;;;31.80;99.90;;;;;;5114952;28;20729;-79
2023/08/19 10:01:52;;;;;;;119.28;113.32;;;32.10;99.90;;;;;;5115216;28;20198;-78
2023/08/19 10:04:18;;;;;;;94.20;89.40;;;32.30;99.90;;;;;;5114643;28;20272;-79
2023/08/19 10:06:48;;;;;;;57.72;54.63;;;32.30;99.90;;;;;;5115182;27;20213;-79
2023/08/19 10:09:18;;;;;;;57.08;53.78;;;32.30;99.90;;;;;;5114867;28;20733;-79
2023/08/19 10:11:46;;;;;;;47.20;44.42;;;32.20;98.40;;;;;;5115153;28;20293;-79
2023/08/19 10:14:15;;;;;;;53.53;50.72;;;32.10;98.60;;;;;;5115008;28;20252;-79
2023/08/19 10:16:46;;;;;;;44.60;42.15;;;32.00;99.00;;;;;;5114706;28;20198;-79
2023/08/19 10:19:17;;;;;;;53.40;50.88;;;32.00;98.50;;;;;;5114934;28;20211;-78
2023/08/19 10:21:46;;;;;;;48.70;45.92;;;32.10;97.40;;;;;;5115022;28;20238;-79
2023/08/19 10:24:16;;;;;;;44.03;41.60;;;32.00;98.10;;;;;;5114781;28;20201;-79
2023/08/19 10:26:47;;;;;;;48.55;46.10;;;32.00;98.40;;;;;;5114779;28;20207;-79
2023/08/19 10:29:15;;;;;;;34.30;32.33;;;32.00;98.50;;;;;;5115577;28;20184;-79
2023/08/19 10:31:42;;;;;;;50.05;47.42;;;32.00;98.70;;;;;;5114722;28;20203;-79
2023/08/19 10:34:23;;;;;;;30.73;29.10;;;32.00;98.30;;;;;;5114638;28;20256;-79
2023/08/19 10:37:05;;;;;;;28.85;27.23;;;32.10;96.10;;;;;;5114628;28;20186;-79
2023/08/19 10:39:32;;;;;;;24.35;23.10;;;32.20;94.30;;;;;;5114234;28;20201;-78
2023/08/19 10:41:59;;;;;;;27.35;26.00;;;32.40;94.30;;;;;;5114557;28;20208;-79
2023/08/19 10:44:31;;;;;;;27.23;25.90;;;32.40;95.80;;;;;;5114484;28;20219;-79
2023/08/19 10:47:09;;;;;;;24.02;22.70;;;32.40;96.50;;;;;;5114431;28;20238;-79
2023/08/19 10:49:36;;;;;;;15.90;14.73;;;32.50;94.90;;;;;;5114453;28;20181;-79
2023/08/19 10:52:05;;;;;;;24.48;23.17;;;32.60;95.30;;;;;;5114032;28;20199;-79
2023/08/19 10:54:35;;;;;;;16.45;15.57;;;32.80;91.60;;;;;;5114270;27;20226;-79
2023/08/19 10:57:13;;;;;;;29.85;28.50;;;33.10;91.60;;;;;;5114257;28;20207;-79
2023/08/19 10:59:42;;;;;;;58.17;55.60;;;33.30;91.70;;;;;;5114125;28;20229;-79
2023/08/19 11:02:10;;;;;;;60.72;57.90;;;33.60;87.70;;;;;;5114195;28;20205;-79
2023/08/19 11:04:41;;;;;;;46.25;44.15;;;33.80;88.00;;;;;;5113665;28;20249;-79
2023/08/19 11:07:08;;;;;;;52.05;49.47;;;34.00;89.10;;;;;;5114182;28;20197;-80
2023/08/19 11:09:35;;;;;;;38.75;36.97;;;34.10;89.00;;;;;;5113716;28;20680;-80
2023/08/19 11:12:02;;;;;;;41.47;39.45;;;34.10;89.50;;;;;;5113798;28;20190;-80
2023/08/19 11:14:29;;;;;;;38.72;36.92;;;34.00;90.10;;;;;;5113973;28;20569;-81
2023/08/19 11:16:57;;;;;;;44.35;41.90;;;33.80;89.30;;;;;;5113688;28;20705;-80
2023/08/19 11:19:24;;;;;;;38.60;36.80;;;33.60;86.70;;;;;;5113909;28;20217;-80
2023/08/19 11:21:52;;;;;;;18.23;17.35;;;33.20;86.10;;;;;;5113935;28;20199;-81
2023/08/19 11:24:19;;;;;;;36.03;34.45;;;32.90;81.50;;;;;;5113871;28;20204;-81
2023/08/19 11:26:48;;;;;;;34.25;32.75;;;32.80;84.10;;;;;;5113877;28;20215;-80
2023/08/19 11:29:15;;;;;;;45.53;43.53;;;32.50;87.70;;;;;;5113851;28;20240;-81
2023/08/19 11:31:42;;;;;;;34.13;32.65;;;32.40;87.10;;;;;;5113825;28;20202;-81
2023/08/19 11:34:11;;;;;;;52.92;50.78;;;32.40;85.30;;;;;;5113501;28;20196;-80
2023/08/19 11:36:39;;;;;;;71.32;68.25;;;32.40;82.90;;;;;;5113437;28;20208;-80
2023/08/19 11:39:07;;;;;;;61.88;59.13;;;32.60;83.20;;;;;;5113687;28;20228;-79
2023/08/19 11:41:34;;;;;;;60.17;57.58;;;32.90;83.60;;;;;;5113724;28;20210;-80
2023/08/19 11:44:03;;;;;;;65.88;62.85;;;32.90;87.10;;;;;;5113629;28;20561;-80
2023/08/19 11:46:29;;;;;;;63.80;60.95;;;32.90;85.10;;;;;;5113649;28;20201;-80
2023/08/19 11:48:57;;;;;;;51.67;49.22;;;32.90;84.00;;;;;;5113353;28;20670;-80
2023/08/19 11:51:26;;;;;;;50.92;48.45;;;32.90;82.60;;;;;;5113552;28;20605;-80
2023/08/19 11:53:55;;;;;;;55.05;52.45;;;32.90;81.40;;;;;;5114176;28;20202;-80
2023/08/19 11:56:21;;;;;;;44.17;42.22;;;32.90;83.20;;;;;;5113534;28;20342;-80
2023/08/19 11:58:50;;;;;;;52.72;50.30;;;32.90;85.50;;;;;;5113480;28;20223;-80
2023/08/19 12:01:17;;;;;;;47.35;44.90;;;32.80;83.30;;;;;;5114163;28;20202;-80
2023/08/19 12:03:45;;;;;;;64.45;61.65;;;32.90;83.10;;;;;;5117345;28;20239;-80
2023/08/19 12:06:13;;;;;;;47.90;45.65;;;32.80;85.50;;;;;;5117536;28;20228;-80
2023/08/19 12:08:42;;;;;;;49.25;47.10;;;32.70;83.30;;;;;;5117189;28;20213;-79
2023/08/19 12:11:10;;;;;;;46.38;43.70;;;32.70;82.30;;;;;;5117462;28;20196;-80
2023/08/19 12:13:37;;;;;;;57.70;55.30;;;32.70;82.20;;;;;;5117434;28;20205;-80
2023/08/19 12:16:05;;;;;;;56.05;53.65;;;32.70;82.70;;;;;;5117327;28;20271;-80
2023/08/19 12:18:33;;;;;;;54.05;51.67;;;32.70;83.70;;;;;;5117339;27;20208;-80
2023/08/19 12:21:01;;;;;;;70.50;67.45;;;32.60;84.80;;;;;;5116958;28;20764;-80
2023/08/19 12:23:28;;;;;;;42.83;40.92;;;32.50;87.00;;;;;;5117203;27;20202;-80
2023/08/19 12:25:57;;;;;;;47.33;45.25;;;32.40;85.30;;;;;;5116875;28;20221;-79
2023/08/19 12:28:25;;;;;;;56.85;54.17;;;32.30;85.90;;;;;;5116835;28;20554;-80
2023/08/19 12:30:53;;;;;;;56.80;54.35;;;32.30;87.60;;;;;;5117091;27;20201;-80
2023/08/19 12:33:21;;;;;;;48.97;46.85;;;32.30;84.60;;;;;;5117066;28;20209;-80
2023/08/19 12:35:49;;;;;;;69.68;66.28;;;32.30;83.10;;;;;;5116932;27;20220;-80
2023/08/19 12:38:17;;;;;;;54.67;52.17;;;32.30;80.80;;;;;;5116682;28;20671;-80
2023/08/19 12:40:44;;;;;;;64.95;61.92;;;32.30;83.70;;;;;;5116871;28;20235;-80
2023/08/19 12:43:14;;;;;;;57.53;54.92;;;32.20;84.10;;;;;;5116867;28;20235;-79